createdAt,value
2019-01-31T00:02:15.929Z,0.00
2019-01-31T00:04:53.567Z,0.00
2019-01-31T00:07:48.229Z,0.10
2019-01-31T00:10:52.442Z,0.00
2019-01-31T00:14:06.793Z,0.00
2019-01-31T00:16:59.345Z,0.00
2019-01-31T00:19:34.269Z,0.10
2019-01-31T00:22:32.746Z,0.10
2019-01-31T00:25:23.367Z,0.00
2019-01-31T00:28:43.234Z,0.00
2019-01-31T00:31:20.022Z,0.00
2019-01-31T00:34:11.430Z,0.00
2019-01-31T00:36:55.586Z,0.00
2019-01-31T00:39:58.293Z,0.00
2019-01-31T00:42:52.179Z,0.00
2019-01-31T00:45:53.502Z,-0.10
2019-01-31T00:48:42.659Z,0.00
2019-01-31T00:51:37.466Z,0.00
2019-01-31T00:54:39.883Z,0.00
2019-01-31T00:57:30.883Z,0.00
2019-01-31T01:00:19.907Z,-0.10
2019-01-31T01:03:37.031Z,-0.10
2019-01-31T01:06:38.920Z,-0.10
2019-01-31T01:09:45.718Z,-0.10
2019-01-31T01:12:48.891Z,-0.10
2019-01-31T01:16:10.907Z,-0.10
2019-01-31T01:19:32.807Z,-0.10
2019-01-31T01:22:35.733Z,-0.10
2019-01-31T01:25:49.181Z,0.00
2019-01-31T01:29:02.857Z,0.00
2019-01-31T01:32:02.077Z,0.00
2019-01-31T01:35:08.355Z,-0.10
2019-01-31T01:37:49.651Z,-0.10
2019-01-31T01:40:57.133Z,-0.10
2019-01-31T01:43:51.689Z,-0.10
2019-01-31T01:46:41.732Z,-0.10
2019-01-31T01:49:39.948Z,-0.10
2019-01-31T01:53:03.077Z,-0.10
2019-01-31T01:55:58.774Z,-0.10
2019-01-31T01:59:02.346Z,-0.10
2019-01-31T02:02:09.656Z,-0.10
2019-01-31T02:05:14.096Z,-0.10
2019-01-31T02:08:06.658Z,-0.10
2019-01-31T02:11:16.084Z,-0.10
2019-01-31T02:14:27.094Z,-0.20
2019-01-31T02:17:21.246Z,-0.20
2019-01-31T02:19:58.938Z,-0.20
2019-01-31T02:23:05.021Z,-0.20
2019-01-31T02:25:54.470Z,-0.20
2019-01-31T02:28:56.757Z,-0.20
2019-01-31T02:31:53.291Z,-0.20
2019-01-31T02:34:36.834Z,-0.20
2019-01-31T02:37:39.728Z,-0.20
2019-01-31T02:40:27.131Z,-0.20
2019-01-31T02:43:32.735Z,-0.20
2019-01-31T02:46:49.239Z,-0.20
2019-01-31T02:49:48.093Z,-0.30
2019-01-31T02:53:10.889Z,-0.30
2019-01-31T02:56:07.711Z,-0.30
2019-01-31T02:59:05.047Z,-0.20
2019-01-31T03:01:45.619Z,-0.30
2019-01-31T03:04:56.121Z,-0.30
2019-01-31T03:07:50.457Z,-0.30
2019-01-31T03:10:34.415Z,-0.30
2019-01-31T03:13:32.616Z,-0.20
2019-01-31T03:16:26.277Z,-0.20
2019-01-31T03:19:49.083Z,-0.20
2019-01-31T03:23:18.202Z,-0.30
2019-01-31T03:26:24.777Z,-0.20
2019-01-31T03:29:34.767Z,-0.30
2019-01-31T03:32:41.677Z,-0.30
2019-01-31T03:35:43.727Z,-0.30
2019-01-31T03:38:31.489Z,-0.30
2019-01-31T03:41:36.565Z,-0.30
2019-01-31T03:44:12.310Z,-0.30
2019-01-31T03:47:18.032Z,-0.30
2019-01-31T03:50:10.917Z,-0.30
2019-01-31T03:53:20.706Z,-0.30
2019-01-31T03:56:34.196Z,-0.30
2019-01-31T03:59:27.258Z,-0.20
2019-01-31T04:02:34.415Z,-0.30
2019-01-31T04:05:31.191Z,-0.20
2019-01-31T04:08:00.639Z,-0.30
2019-01-31T04:10:30.035Z,-0.20
2019-01-31T04:12:59.441Z,-0.20
2019-01-31T04:15:30.690Z,-0.20
2019-01-31T04:18:00.107Z,-0.20
2019-01-31T04:20:29.535Z,-0.20
2019-01-31T04:22:58.937Z,-0.20
2019-01-31T04:25:28.357Z,-0.20
2019-01-31T04:27:57.817Z,-0.20
2019-01-31T04:30:27.594Z,-0.10
2019-01-31T04:32:57.111Z,-0.10
2019-01-31T04:35:26.529Z,-0.10
2019-01-31T04:37:55.950Z,-0.20
2019-01-31T04:40:31.409Z,-0.10
2019-01-31T04:42:56.468Z,-0.10
2019-01-31T04:45:25.911Z,-0.10
2019-01-31T04:47:56.356Z,-0.10
2019-01-31T04:50:26.116Z,-0.10
2019-01-31T04:52:55.543Z,-0.10
2019-01-31T04:55:24.943Z,-0.10
2019-01-31T04:57:54.355Z,-0.10
2019-01-31T05:00:23.771Z,-0.10
2019-01-31T05:02:53.206Z,-0.10
2019-01-31T05:05:22.687Z,-0.10
2019-01-31T05:07:52.128Z,-0.10
2019-01-31T05:10:21.603Z,-0.20
2019-01-31T05:12:51.033Z,-0.10
2019-01-31T05:15:20.457Z,-0.20
2019-01-31T05:17:50.076Z,-0.20
2019-01-31T05:20:19.565Z,-0.20
2019-01-31T05:22:48.991Z,-0.20
2019-01-31T05:25:18.426Z,-0.10
2019-01-31T05:27:47.841Z,-0.10
2019-01-31T05:30:17.623Z,-0.10
2019-01-31T05:32:47.118Z,-0.10
2019-01-31T05:35:16.613Z,-0.20
2019-01-31T05:37:46.041Z,-0.10
2019-01-31T05:40:15.787Z,-0.10
2019-01-31T05:42:45.277Z,-0.10
2019-01-31T05:45:15.857Z,-0.10
2019-01-31T05:47:45.327Z,-0.10
2019-01-31T05:50:16.719Z,0.00
2019-01-31T05:52:46.142Z,0.00
2019-01-31T05:55:15.632Z,0.00
2019-01-31T05:57:45.062Z,0.00
2019-01-31T06:00:23.090Z,0.00
2019-01-31T06:02:52.630Z,0.00
2019-01-31T06:05:22.416Z,0.00
2019-01-31T06:07:51.814Z,0.00
2019-01-31T06:10:21.298Z,0.00
2019-01-31T06:12:50.746Z,0.00
2019-01-31T06:15:20.257Z,-0.10
2019-01-31T06:17:50.014Z,-0.10
2019-01-31T06:20:21.830Z,-0.10
2019-01-31T06:22:51.360Z,-0.10
2019-01-31T06:25:20.822Z,0.00
2019-01-31T06:27:50.510Z,0.00
2019-01-31T06:30:19.993Z,-0.10
2019-01-31T06:32:49.419Z,-0.10
2019-01-31T06:35:18.924Z,-0.10
2019-01-31T06:37:48.459Z,-0.10
2019-01-31T06:40:19.424Z,-0.10
2019-01-31T06:42:49.555Z,-0.10
2019-01-31T06:45:20.186Z,-0.10
2019-01-31T06:47:49.606Z,-0.10
2019-01-31T06:50:19.051Z,-0.10
2019-01-31T06:52:48.531Z,-0.10
2019-01-31T06:55:18.027Z,-0.20
2019-01-31T06:57:47.444Z,-0.10
2019-01-31T07:00:19.483Z,-0.20
2019-01-31T07:02:49.112Z,-0.20
2019-01-31T07:05:18.619Z,-0.20
2019-01-31T07:07:48.274Z,-0.20
2019-01-31T07:10:20.443Z,-0.20
2019-01-31T07:12:49.995Z,-0.20
2019-01-31T07:15:19.723Z,-0.30
2019-01-31T07:17:49.156Z,-0.20
2019-01-31T07:20:18.810Z,-0.30
2019-01-31T07:22:48.211Z,-0.30
2019-01-31T07:25:22.976Z,-0.30
2019-01-31T07:27:52.454Z,-0.30
2019-01-31T07:30:22.162Z,-0.30
2019-01-31T07:32:52.307Z,-0.30
2019-01-31T07:35:21.821Z,-0.30
2019-01-31T07:37:53.082Z,-0.30
2019-01-31T07:40:22.700Z,-0.30
2019-01-31T07:42:52.182Z,-0.20
2019-01-31T07:45:24.070Z,-0.20
2019-01-31T07:47:53.598Z,-0.20
2019-01-31T07:50:23.205Z,-0.20
2019-01-31T07:52:52.800Z,-0.20
2019-01-31T07:55:22.206Z,-0.20
2019-01-31T07:57:51.995Z,-0.20
2019-01-31T08:00:22.048Z,-0.10
2019-01-31T08:02:51.772Z,-0.10
2019-01-31T08:05:22.084Z,-0.10
2019-01-31T08:07:52.890Z,-0.10
2019-01-31T08:10:25.042Z,-0.10
2019-01-31T08:12:54.642Z,-0.10
2019-01-31T08:15:24.079Z,-0.10
2019-01-31T08:17:53.532Z,-0.10
2019-01-31T08:20:23.031Z,-0.10
2019-01-31T08:22:52.451Z,-0.10
2019-01-31T08:25:23.052Z,-0.10
2019-01-31T08:27:52.902Z,-0.20
2019-01-31T08:30:24.692Z,-0.10
2019-01-31T08:32:54.953Z,-0.10
2019-01-31T08:35:24.765Z,-0.10
2019-01-31T08:37:54.219Z,-0.10
2019-01-31T08:40:23.845Z,-0.10
2019-01-31T08:42:53.777Z,0.00
2019-01-31T08:45:23.223Z,0.00
2019-01-31T08:47:52.631Z,0.10
2019-01-31T08:50:23.762Z,0.10
2019-01-31T08:52:53.373Z,0.10
2019-01-31T08:55:22.845Z,0.10
2019-01-31T08:57:52.257Z,0.20
2019-01-31T09:00:24.260Z,0.20
2019-01-31T09:02:53.728Z,0.20
2019-01-31T09:05:23.159Z,0.20
2019-01-31T09:07:52.722Z,0.20
2019-01-31T09:10:24.350Z,0.20
2019-01-31T09:12:54.004Z,0.20
2019-01-31T09:15:24.746Z,0.20
2019-01-31T09:17:54.248Z,0.20
2019-01-31T09:20:26.804Z,0.20
2019-01-31T09:23:23.148Z,0.20
2019-01-31T09:26:16.641Z,0.30
2019-01-31T09:29:14.249Z,0.30
2019-01-31T09:31:56.774Z,0.30
2019-01-31T09:35:05.057Z,0.30
2019-01-31T09:38:12.584Z,0.40
2019-01-31T09:41:32.405Z,0.40
2019-01-31T09:44:33.497Z,0.40
2019-01-31T09:47:25.027Z,0.50
2019-01-31T09:50:38.767Z,0.40
2019-01-31T09:53:51.872Z,0.50
2019-01-31T09:57:07.461Z,0.50
2019-01-31T09:59:42.079Z,0.50
2019-01-31T10:02:59.115Z,0.60
2019-01-31T10:06:14.909Z,0.60
2019-01-31T10:09:28.853Z,0.70
2019-01-31T10:12:23.463Z,0.70
2019-01-31T10:15:02.426Z,0.80
2019-01-31T10:18:01.847Z,0.80
2019-01-31T10:21:03.920Z,0.80
2019-01-31T10:23:44.529Z,0.90
2019-01-31T10:26:43.858Z,0.90
2019-01-31T10:29:52.929Z,0.90
2019-01-31T10:32:47.433Z,0.90
2019-01-31T10:35:58.524Z,1.00
2019-01-31T10:38:54.597Z,1.00
2019-01-31T10:41:58.301Z,1.10
2019-01-31T10:45:09.633Z,1.20
2019-01-31T10:48:20.612Z,1.30
2019-01-31T10:51:10.808Z,1.40
2019-01-31T10:53:58.922Z,1.50
2019-01-31T10:56:51.026Z,1.70
2019-01-31T11:00:07.662Z,1.80
2019-01-31T11:03:20.844Z,2.10
2019-01-31T11:06:23.118Z,2.20
2019-01-31T11:09:42.562Z,2.50
2019-01-31T11:12:36.566Z,2.70
2019-01-31T11:15:48.370Z,2.90
2019-01-31T11:18:55.207Z,2.90
2019-01-31T11:21:46.284Z,3.10
2019-01-31T11:24:54.426Z,3.40
2019-01-31T11:27:46.985Z,3.50
2019-01-31T11:30:26.754Z,3.70
2019-01-31T11:33:35.054Z,3.70
2019-01-31T11:36:33.208Z,3.50
2019-01-31T11:39:54.335Z,3.30
2019-01-31T11:42:50.595Z,3.10
2019-01-31T11:45:44.375Z,2.90
2019-01-31T11:48:59.303Z,2.80
2019-01-31T11:52:11.784Z,2.70
2019-01-31T11:55:12.987Z,2.70
2019-01-31T11:58:04.117Z,2.60
2019-01-31T12:00:33.871Z,2.60
2019-01-31T12:03:03.420Z,2.60
2019-01-31T12:05:33.075Z,2.70
2019-01-31T12:08:02.745Z,2.70
2019-01-31T12:10:32.187Z,2.60
2019-01-31T12:13:01.744Z,2.60
2019-01-31T12:15:31.233Z,2.60
2019-01-31T12:18:00.745Z,2.60
2019-01-31T12:20:30.163Z,2.70
2019-01-31T12:22:59.669Z,2.60
2019-01-31T12:25:29.056Z,2.60
2019-01-31T12:27:58.577Z,2.70
2019-01-31T12:30:28.391Z,2.70
2019-01-31T12:32:57.879Z,2.70
2019-01-31T12:35:27.344Z,2.70
2019-01-31T12:37:56.883Z,2.70
2019-01-31T12:40:26.357Z,2.70
2019-01-31T12:42:55.931Z,2.70
2019-01-31T12:45:25.328Z,2.70
2019-01-31T12:47:54.965Z,2.80
2019-01-31T12:50:26.373Z,2.80
2019-01-31T12:52:56.001Z,2.80
2019-01-31T12:55:25.561Z,2.80
2019-01-31T12:57:55.125Z,2.80
2019-01-31T13:00:26.795Z,2.80
2019-01-31T13:02:56.430Z,2.70
2019-01-31T13:05:26.003Z,2.80
2019-01-31T13:07:55.403Z,2.70
2019-01-31T13:10:25.049Z,2.80
2019-01-31T13:12:55.590Z,2.70
2019-01-31T13:15:25.234Z,2.70
2019-01-31T13:17:54.794Z,2.70
2019-01-31T13:20:25.172Z,2.70
2019-01-31T13:22:58.245Z,2.70
2019-01-31T13:25:28.832Z,2.70
2019-01-31T13:27:58.258Z,2.80
2019-01-31T13:30:28.056Z,2.80
2019-01-31T13:32:58.017Z,2.70
2019-01-31T13:35:27.451Z,2.80
2019-01-31T13:37:56.869Z,2.80
2019-01-31T13:40:27.431Z,2.80
2019-01-31T13:42:57.646Z,2.80
2019-01-31T13:45:29.479Z,2.80
2019-01-31T13:48:02.138Z,2.80
2019-01-31T13:50:31.864Z,2.80
2019-01-31T13:53:01.775Z,2.80
2019-01-31T13:55:31.875Z,2.80
2019-01-31T13:58:01.454Z,2.80
2019-01-31T14:00:31.133Z,2.80
2019-01-31T14:03:00.803Z,2.80
2019-01-31T14:05:30.458Z,2.80
2019-01-31T14:08:00.188Z,2.80
2019-01-31T14:10:29.763Z,2.80
2019-01-31T14:12:59.210Z,2.80
2019-01-31T14:15:33.837Z,2.80
2019-01-31T14:18:03.910Z,2.80
2019-01-31T14:20:33.597Z,2.80
2019-01-31T14:23:03.047Z,2.80
2019-01-31T14:25:32.548Z,2.80
2019-01-31T14:28:01.954Z,2.80
2019-01-31T14:30:33.975Z,2.80
2019-01-31T14:33:04.134Z,2.90
2019-01-31T14:35:33.607Z,2.80
2019-01-31T14:38:03.010Z,2.90
2019-01-31T14:40:32.762Z,2.80
2019-01-31T14:43:02.439Z,2.80
2019-01-31T14:45:31.934Z,2.80
2019-01-31T14:48:01.464Z,2.80
2019-01-31T14:50:32.500Z,2.80
2019-01-31T14:53:02.313Z,2.80
2019-01-31T14:59:16.770Z,2.80
2019-01-31T15:01:46.310Z,2.90
2019-01-31T15:04:15.834Z,2.90
2019-01-31T15:06:45.266Z,2.90
2019-01-31T15:09:14.680Z,2.90
2019-01-31T15:11:44.086Z,2.80
2019-01-31T15:14:13.500Z,2.90
2019-01-31T15:16:42.900Z,2.90
2019-01-31T15:19:12.576Z,2.80
2019-01-31T15:21:42.115Z,2.80
2019-01-31T15:24:11.510Z,2.80
2019-01-31T15:26:40.921Z,2.80
2019-01-31T15:29:10.381Z,2.80
2019-01-31T15:31:39.886Z,2.80
2019-01-31T15:34:09.415Z,2.70
2019-01-31T15:36:38.870Z,2.70
2019-01-31T15:39:09.263Z,2.80
2019-01-31T15:41:38.670Z,2.70
2019-01-31T15:44:08.365Z,2.70
2019-01-31T15:46:37.823Z,2.70
2019-01-31T15:49:07.387Z,2.70
2019-01-31T15:51:37.159Z,2.70
2019-01-31T15:54:06.953Z,2.80
2019-01-31T15:56:36.373Z,2.70
2019-01-31T15:59:06.041Z,2.70
2019-01-31T16:01:35.635Z,2.70
2019-01-31T16:04:05.421Z,2.70
2019-01-31T16:06:35.009Z,2.70
2019-01-31T16:09:07.609Z,2.70
2019-01-31T16:11:37.303Z,2.60
2019-01-31T16:14:07.310Z,2.60
2019-01-31T16:16:36.797Z,2.60
2019-01-31T16:19:06.237Z,2.60
2019-01-31T16:21:35.698Z,2.60
2019-01-31T16:24:05.356Z,2.60
2019-01-31T16:26:34.820Z,2.60
2019-01-31T16:29:04.573Z,2.50
2019-01-31T16:31:33.991Z,2.50
2019-01-31T16:34:03.525Z,2.50
2019-01-31T16:36:33.035Z,2.40
2019-01-31T16:39:02.458Z,2.40
2019-01-31T16:41:31.870Z,2.40
2019-01-31T16:44:01.420Z,2.40
2019-01-31T16:46:30.912Z,2.30
2019-01-31T16:49:00.394Z,2.30
2019-01-31T16:51:29.904Z,2.30
2019-01-31T16:53:59.344Z,2.20
2019-01-31T16:56:28.782Z,2.20
2019-01-31T16:58:58.370Z,2.10
2019-01-31T17:01:27.854Z,2.10
2019-01-31T17:03:57.274Z,2.10
2019-01-31T17:06:26.675Z,2.10
2019-01-31T17:08:56.095Z,2.00
2019-01-31T17:11:25.556Z,2.00
2019-01-31T17:13:54.981Z,2.00
2019-01-31T17:16:24.544Z,2.00
2019-01-31T17:18:54.916Z,1.90
2019-01-31T17:21:24.550Z,2.00
2019-01-31T17:23:53.961Z,1.90
2019-01-31T17:26:23.388Z,1.90
2019-01-31T17:28:52.833Z,1.80
2019-01-31T17:31:22.273Z,1.80
2019-01-31T17:33:51.708Z,1.70
2019-01-31T17:36:21.111Z,1.80
2019-01-31T17:38:50.629Z,1.80
2019-01-31T17:41:20.326Z,1.70
2019-01-31T17:43:49.921Z,1.70
2019-01-31T17:46:19.405Z,1.70
2019-01-31T17:48:48.839Z,1.70
2019-01-31T17:51:18.567Z,1.60
2019-01-31T17:53:48.188Z,1.60
2019-01-31T17:56:17.599Z,1.50
2019-01-31T17:58:47.022Z,1.50
2019-01-31T18:01:16.660Z,1.60
2019-01-31T18:03:46.269Z,1.60
2019-01-31T18:06:18.732Z,1.60
2019-01-31T18:08:46.949Z,1.60
2019-01-31T18:11:16.448Z,1.60
2019-01-31T18:13:45.864Z,1.50
2019-01-31T18:16:15.290Z,1.50
2019-01-31T18:18:44.729Z,1.50
2019-01-31T18:21:14.288Z,1.50
2019-01-31T18:23:43.698Z,1.40
2019-01-31T18:26:13.331Z,1.40
2019-01-31T18:28:42.732Z,1.40
2019-01-31T18:31:12.147Z,1.40
2019-01-31T18:33:41.611Z,1.40
2019-01-31T18:36:11.018Z,1.30
2019-01-31T18:38:40.430Z,1.30
2019-01-31T18:41:09.842Z,1.30
2019-01-31T18:43:39.249Z,1.30
2019-01-31T18:46:08.738Z,1.40
2019-01-31T18:48:38.155Z,1.30
2019-01-31T18:51:07.604Z,1.30
2019-01-31T18:53:37.154Z,1.30
2019-01-31T18:56:06.909Z,1.30
2019-01-31T18:58:36.403Z,1.30
2019-01-31T19:01:06.463Z,1.20
2019-01-31T19:03:36.027Z,1.20
2019-01-31T19:06:05.619Z,1.20
2019-01-31T19:08:35.042Z,1.20
2019-01-31T19:11:04.543Z,1.30
2019-01-31T19:13:34.146Z,1.20
2019-01-31T19:16:05.479Z,1.30
2019-01-31T19:18:34.794Z,1.10
2019-01-31T19:21:04.388Z,1.10
2019-01-31T19:23:33.791Z,1.10
2019-01-31T19:26:03.240Z,1.00
2019-01-31T19:28:32.650Z,1.00
2019-01-31T19:31:02.074Z,1.00
2019-01-31T19:33:31.476Z,1.00
2019-01-31T19:36:00.893Z,1.00
2019-01-31T19:38:30.315Z,1.00
2019-01-31T19:40:59.818Z,1.00
2019-01-31T19:43:29.302Z,1.10
2019-01-31T19:45:58.727Z,1.00
2019-01-31T19:48:28.362Z,1.00
2019-01-31T19:50:57.828Z,1.00
2019-01-31T19:53:27.479Z,1.00
2019-01-31T19:55:57.162Z,1.00
2019-01-31T19:58:26.675Z,1.00
2019-01-31T20:00:56.156Z,1.00
2019-01-31T20:03:25.566Z,0.90
2019-01-31T20:05:55.116Z,0.90
2019-01-31T20:08:24.809Z,0.90
2019-01-31T20:10:54.415Z,0.90
2019-01-31T20:13:24.178Z,0.80
2019-01-31T20:15:53.651Z,0.80
2019-01-31T20:18:23.250Z,0.90
2019-01-31T20:20:52.674Z,0.80
2019-01-31T20:23:22.142Z,0.80
2019-01-31T20:25:51.537Z,0.80
2019-01-31T20:28:20.971Z,0.80
2019-01-31T20:30:50.461Z,0.80
2019-01-31T20:33:20.039Z,0.70
2019-01-31T20:35:49.691Z,0.70
2019-01-31T20:38:19.510Z,0.70
2019-01-31T20:40:49.066Z,0.60
2019-01-31T20:43:18.565Z,0.60
2019-01-31T20:45:48.273Z,0.70
2019-01-31T20:48:17.828Z,0.70
2019-01-31T20:50:47.235Z,0.70
2019-01-31T20:53:16.645Z,0.60
2019-01-31T20:55:46.051Z,0.60
2019-01-31T20:58:15.537Z,0.70
2019-01-31T21:00:46.527Z,0.70
2019-01-31T21:03:16.197Z,0.60
2019-01-31T21:05:46.039Z,0.50
2019-01-31T21:08:15.919Z,0.50
2019-01-31T21:10:45.752Z,0.50
2019-01-31T21:13:15.457Z,0.50
2019-01-31T21:15:44.931Z,0.50
2019-01-31T21:18:14.621Z,0.40
2019-01-31T21:20:44.190Z,0.40
2019-01-31T21:23:13.645Z,0.40
2019-01-31T21:25:43.050Z,0.40
2019-01-31T21:28:12.452Z,0.50
2019-01-31T21:30:43.554Z,0.40
2019-01-31T21:33:12.988Z,0.50
2019-01-31T21:35:42.514Z,0.50
2019-01-31T21:38:11.917Z,0.40
2019-01-31T21:40:41.711Z,0.30
2019-01-31T21:43:11.280Z,0.30
2019-01-31T21:45:40.783Z,0.40
2019-01-31T21:48:11.281Z,0.30
2019-01-31T21:50:40.841Z,0.30
2019-01-31T21:53:10.399Z,0.40
2019-01-31T21:55:39.884Z,0.30
2019-01-31T21:58:09.728Z,0.30
2019-01-31T22:00:39.278Z,0.30
2019-01-31T22:03:09.214Z,0.40
2019-01-31T22:05:38.802Z,0.40
2019-01-31T22:08:08.282Z,0.40
2019-01-31T22:10:37.723Z,0.40
2019-01-31T22:13:07.143Z,0.30
2019-01-31T22:15:37.166Z,0.40
2019-01-31T22:18:07.536Z,0.40
2019-01-31T22:20:37.082Z,0.40
2019-01-31T22:23:06.748Z,0.40
2019-01-31T22:25:36.182Z,0.30
2019-01-31T22:28:06.109Z,0.20
2019-01-31T22:30:37.272Z,0.20
2019-01-31T22:33:08.330Z,0.30
2019-01-31T22:35:37.900Z,0.30
2019-01-31T22:38:07.391Z,0.20
2019-01-31T22:40:37.167Z,0.20
2019-01-31T22:43:06.677Z,0.30
2019-01-31T22:45:36.081Z,0.20
2019-01-31T22:48:07.013Z,0.20
2019-01-31T22:50:36.431Z,0.20
2019-01-31T22:53:06.293Z,0.10
2019-01-31T22:55:35.732Z,0.10
2019-01-31T22:58:06.289Z,0.10
2019-01-31T23:01:08.250Z,0.10
2019-01-31T23:03:37.846Z,0.10
2019-01-31T23:06:10.210Z,0.10
2019-01-31T23:08:39.754Z,0.10
2019-01-31T23:11:09.391Z,0.20
2019-01-31T23:13:39.635Z,0.20
2019-01-31T23:16:09.203Z,0.20
2019-01-31T23:18:38.693Z,0.20
2019-01-31T23:21:08.153Z,0.20
2019-01-31T23:23:37.642Z,0.20
2019-01-31T23:26:07.717Z,0.20
2019-01-31T23:28:37.114Z,0.20
2019-01-31T23:31:06.584Z,0.10
2019-01-31T23:33:36.001Z,0.10
2019-01-31T23:36:06.718Z,0.20
2019-01-31T23:38:36.236Z,0.10
2019-01-31T23:41:05.970Z,0.00
2019-01-31T23:43:35.408Z,0.00
2019-01-31T23:46:06.026Z,0.00
2019-01-31T23:48:35.434Z,0.00
2019-01-31T23:51:05.172Z,-0.10
2019-01-31T23:53:34.596Z,0.00
2019-01-31T23:56:04.458Z,0.00
2019-01-31T23:58:33.862Z,0.00
